Time;durP1;ratioP1;P1;durP2;ratioP2;P2;SDS_P1;SDS_P2;PMS_P1;PMS_P2;Temp;Humidity;BMP_temperature;BMP_pressure;BME280_temperature;BME280_humidity;BME280_pressure;Samples;Min_cycle;Max_cycle;Signal;HPM_P1;HPM_P2
2021/03/30 00:02:11;;;;;;;2.53;1.87;;;6.90;96.00;;;;;;5053882;23;20482;-90
2021/03/30 00:04:38;;;;;;;2.77;1.90;;;6.90;99.30;;;;;;5063870;28;20478;-91
2021/03/30 00:07:05;;;;;;;3.43;1.80;;;6.90;96.40;;;;;;5067057;28;20447;-90
2021/03/30 00:09:31;;;;;;;4.90;2.20;;;;;;;;;;5062432;28;20486;-91
2021/03/30 00:11:59;;;;;;;5.03;2.20;;;6.90;96.00;;;;;;5066743;28;20451;-91
2021/03/30 00:14:25;;;;;;;2.53;2.10;;;6.90;96.40;;;;;;5065750;28;21017;-90
2021/03/30 00:16:53;;;;;;;3.57;2.10;;;6.90;96.30;;;;;;5056263;23;20961;-91
2021/03/30 00:19:19;;;;;;;4.17;2.00;;;6.90;96.60;;;;;;5042938;28;20786;-91
2021/03/30 00:21:45;;;;;;;3.73;1.90;;;6.90;96.90;;;;;;5046717;28;20443;-89
2021/03/30 00:24:12;;;;;;;3.10;1.90;;;6.80;96.50;;;;;;5049009;28;20506;-89
2021/03/30 00:26:38;;;;;;;13.67;2.20;;;6.80;96.40;;;;;;5052164;28;20447;-91
2021/03/30 00:29:07;;;;;;;7.20;2.13;;;6.80;96.40;;;;;;5064791;23;20502;-91
2021/03/30 00:31:33;;;;;;;4.60;1.90;;;6.80;96.50;;;;;;5063392;28;20851;-91
2021/03/30 00:34:00;;;;;;;7.73;2.10;;;6.90;96.60;;;;;;5060201;28;20832;-91
2021/03/30 00:36:26;;;;;;;6.10;2.07;;;6.90;96.60;;;;;;5063189;28;20442;-90
2021/03/30 00:38:53;;;;;;;4.80;2.43;;;6.90;97.00;;;;;;5059521;28;20461;-93
2021/03/30 00:41:20;;;;;;;4.43;2.40;;;6.90;99.90;;;;;;5061316;28;20442;-90
2021/03/30 00:43:47;;;;;;;8.27;2.00;;;6.80;97.40;;;;;;5062689;28;20471;-91
2021/03/30 00:46:15;;;;;;;4.80;2.00;;;6.80;97.60;;;;;;5062679;28;20494;-91
2021/03/30 00:48:42;;;;;;;5.63;1.77;;;6.70;97.90;;;;;;5064436;28;20439;-90
2021/03/30 00:51:10;;;;;;;5.80;2.20;;;6.70;98.00;;;;;;5064669;28;20435;-91
2021/03/30 00:53:36;;;;;;;2.63;1.97;;;6.70;98.00;;;;;;5065382;28;20454;-90
2021/03/30 00:56:03;;;;;;;2.50;2.03;;;6.70;98.20;;;;;;5065352;28;20454;-90
2021/03/30 00:58:29;;;;;;;5.63;1.90;;;6.70;99.90;;;;;;5064032;28;20439;-90
2021/03/30 01:00:56;;;;;;;2.10;1.90;;;6.70;98.80;;;;;;5065276;23;20483;-91
2021/03/30 01:03:22;;;;;;;3.63;1.90;;;6.60;99.00;;;;;;5043200;28;20922;-91
2021/03/30 01:05:48;;;;;;;2.63;1.70;;;6.60;99.10;;;;;;5054330;23;20482;-91
2021/03/30 01:08:44;;;;;;;2.73;1.93;;;6.60;99.20;;;;;;5049864;23;20503;-91
2021/03/30 01:11:19;;;;;;;2.50;2.17;;;6.60;99.20;;;;;;5024618;28;20452;-92
2021/03/30 01:14:08;;;;;;;2.93;2.00;;;7.90;99.90;;;;;;5021633;28;20455;-91
2021/03/30 01:16:40;;;;;;;3.70;1.97;;;6.60;99.60;;;;;;5025373;28;20441;-91
2021/03/30 01:19:18;;;;;;;2.73;2.00;;;6.60;99.90;;;;;;5020454;28;20444;-91
2021/03/30 01:22:12;;;;;;;3.97;2.23;;;6.50;99.90;;;;;;5022269;28;20440;-90
2021/03/30 01:24:44;;;;;;;2.93;1.80;;;6.40;99.90;;;;;;5020592;28;20487;-91
2021/03/30 01:27:22;;;;;;;4.50;2.10;;;6.20;99.90;;;;;;5017840;28;20437;-91
2021/03/30 01:29:51;;;;;;;5.80;2.00;;;6.10;99.90;;;;;;5020477;28;20451;-92
2021/03/30 01:32:24;;;;;;;3.20;1.70;;;6.20;99.90;;;;;;5023354;28;20471;-90
2021/03/30 01:34:54;;;;;;;1.97;1.77;;;6.10;99.90;;;;;;5023984;28;20476;-90
2021/03/30 01:37:22;;;;;;;4.73;1.97;;;6.00;99.90;;;;;;5024475;28;20440;-91
2021/03/30 01:39:51;;;;;;;8.73;2.57;;;5.80;99.90;;;;;;5024070;28;20445;-91
2021/03/30 01:42:22;;;;;;;4.50;2.30;;;5.90;99.90;;;;;;5024242;28;20962;-91
2021/03/30 01:44:50;;;;;;;3.50;1.93;;;5.80;99.90;;;;;;5023316;28;20983;-92
2021/03/30 01:47:18;;;;;;;3.77;2.60;;;5.80;99.90;;;;;;5022144;28;20507;-91
2021/03/30 01:49:45;;;;;;;2.33;2.13;;;5.50;99.90;;;;;;5024055;28;20444;-90
2021/03/30 01:52:15;;;;;;;2.33;1.80;;;5.80;99.90;;;;;;5024315;28;20857;-91
2021/03/30 01:54:43;;;;;;;3.93;2.27;;;5.00;99.90;;;;;;5024103;28;20451;-91
2021/03/30 01:57:12;;;;;;;3.00;2.07;;;5.60;99.90;;;;;;5024108;28;20509;-91
2021/03/30 01:59:41;;;;;;;2.77;2.00;;;5.70;99.90;;;;;;5026550;28;20463;-91
2021/03/30 02:02:10;;;;;;;3.70;2.17;;;5.60;99.90;;;;;;5028407;28;20425;-91
2021/03/30 02:04:37;;;;;;;4.87;2.50;;;5.60;99.90;;;;;;5029195;28;20476;-91
2021/03/30 02:07:06;;;;;;;2.97;1.83;;;5.50;99.90;;;;;;5027340;28;20810;-91
2021/03/30 02:09:37;;;;;;;3.10;2.03;;;5.60;99.90;;;;;;5029223;28;20521;-90
2021/03/30 02:12:09;;;;;;;3.20;1.83;;;5.60;99.90;;;;;;5027594;28;20443;-90
2021/03/30 02:14:35;;;;;;;4.77;2.03;;;;;;;;;;5024952;28;20440;-91
2021/03/30 02:17:05;;;;;;;2.40;1.87;;;5.60;99.90;;;;;;5028762;28;20437;-90
2021/03/30 02:19:42;;;;;;;4.10;2.07;;;5.70;99.90;;;;;;5029210;28;20436;-92
2021/03/30 02:22:19;;;;;;;5.50;2.33;;;5.40;99.90;;;;;;5022635;28;20506;-91
2021/03/30 02:24:46;;;;;;;3.50;1.93;;;;;;;;;;5025111;28;20538;-90
2021/03/30 02:27:12;;;;;;;3.20;2.30;;;;;;;;;;5028299;28;20437;-91
2021/03/30 02:29:40;;;;;;;4.20;2.37;;;5.40;99.90;;;;;;5026587;28;20455;-92
2021/03/30 02:32:12;;;;;;;4.00;2.17;;;5.30;99.90;;;;;;5006515;28;20445;-90
2021/03/30 02:34:40;;;;;;;3.73;2.17;;;5.30;99.90;;;;;;5027292;28;20495;-91
2021/03/30 02:37:07;;;;;;;4.47;2.33;;;;;;;;;;5026150;28;20453;-91
2021/03/30 02:39:35;;;;;;;4.00;2.40;;;5.50;99.90;;;;;;5025163;28;20433;-90
2021/03/30 02:42:02;;;;;;;3.23;2.00;;;5.20;99.90;;;;;;5025666;28;20503;-90
2021/03/30 02:44:30;;;;;;;5.77;2.97;;;5.00;99.90;;;;;;5023592;28;20460;-91
2021/03/30 02:46:58;;;;;;;2.50;2.07;;;4.70;99.90;;;;;;5027996;28;20441;-91
2021/03/30 02:49:26;;;;;;;4.90;2.10;;;5.00;99.90;;;;;;5027596;28;20828;-91
2021/03/30 02:51:57;;;;;;;3.03;2.13;;;5.00;99.90;;;;;;5027202;28;20420;-91
2021/03/30 02:54:25;;;;;;;3.00;2.13;;;5.10;99.90;;;;;;5055486;23;20549;-89
2021/03/30 02:56:54;;;;;;;4.80;2.40;;;5.40;99.90;;;;;;5068056;28;20423;-90
2021/03/30 02:59:22;;;;;;;3.10;1.97;;;5.00;99.90;;;;;;5062660;28;20439;-90
2021/03/30 03:01:51;;;;;;;2.90;2.40;;;5.20;99.90;;;;;;5062603;23;20475;-91
2021/03/30 03:04:17;;;;;;;3.33;2.43;;;4.80;99.90;;;;;;5030049;28;20450;-91
2021/03/30 03:06:45;;;;;;;2.30;1.90;;;5.20;99.90;;;;;;5043253;28;20432;-90
2021/03/30 03:09:13;;;;;;;3.87;2.03;;;5.20;99.90;;;;;;5046163;28;20467;-91
2021/03/30 03:11:41;;;;;;;3.63;2.70;;;5.00;99.90;;;;;;5048108;28;20445;-91
2021/03/30 03:14:09;;;;;;;2.40;2.20;;;4.90;99.90;;;;;;5048054;28;20449;-90
2021/03/30 03:16:38;;;;;;;11.10;2.70;;;4.80;99.90;;;;;;5054931;28;20454;-91
2021/03/30 03:19:13;;;;;;;3.97;2.40;;;4.80;99.90;;;;;;5051230;28;20452;-92
2021/03/30 03:21:46;;;;;;;4.27;2.50;;;4.70;99.90;;;;;;5046482;28;20451;-92
2021/03/30 03:24:16;;;;;;;3.40;2.10;;;;;;;;;;5036127;28;20439;-91
2021/03/30 03:26:44;;;;;;;4.40;2.90;;;;;;;;;;5048500;28;20450;-91
2021/03/30 03:29:22;;;;;;;9.63;3.40;;;4.70;99.90;;;;;;5035636;28;20444;-91
2021/03/30 03:32:01;;;;;;;4.23;2.50;;;4.70;99.90;;;;;;5042386;28;20911;-91
2021/03/30 03:34:31;;;;;;;3.40;2.53;;;;;;;;;;5051398;28;20431;-91
2021/03/30 03:37:06;;;;;;;4.50;2.50;;;4.60;99.90;;;;;;5049892;28;20506;-90
2021/03/30 03:39:38;;;;;;;3.47;2.37;;;;;;;;;;5068610;28;20477;-90
2021/03/30 03:42:08;;;;;;;8.40;2.20;;;4.50;99.90;;;;;;5058715;28;20444;-91
2021/03/30 03:44:38;;;;;;;4.60;2.83;;;4.50;99.90;;;;;;5051066;28;20466;-90
2021/03/30 03:47:08;;;;;;;7.67;2.90;;;4.40;99.90;;;;;;5050412;28;20466;-91
2021/03/30 03:49:38;;;;;;;5.30;2.87;;;4.50;99.90;;;;;;5049834;23;20436;-91
2021/03/30 03:52:37;;;;;;;5.23;2.27;;;4.10;99.90;;;;;;5095990;23;20498;-92
2021/03/30 03:55:19;;;;;;;2.57;2.37;;;4.50;99.90;;;;;;5023562;23;20514;-92
2021/03/30 03:57:53;;;;;;;8.77;3.10;;;4.50;99.90;;;;;;5058202;23;20505;-92
2021/03/30 04:00:22;;;;;;;2.70;2.50;;;4.50;99.90;;;;;;5064181;28;20445;-90
2021/03/30 04:02:54;;;;;;;4.17;2.50;;;4.40;99.90;;;;;;5060476;28;20525;-90
2021/03/30 04:05:23;;;;;;;5.57;3.10;;;4.20;99.90;;;;;;5061547;28;20498;-90
2021/03/30 04:07:54;;;;;;;6.23;2.50;;;4.30;99.90;;;;;;5064751;28;20535;-89
2021/03/30 04:10:23;;;;;;;3.90;2.63;;;3.50;99.90;;;;;;5063818;28;20442;-89
2021/03/30 04:12:51;;;;;;;12.47;3.23;;;4.20;99.90;;;;;;5066071;28;20537;-91
2021/03/30 04:15:29;;;;;;;2.90;2.43;;;4.20;99.90;;;;;;5059967;28;20457;-90
2021/03/30 04:17:55;;;;;;;3.23;2.80;;;4.20;99.90;;;;;;5064526;28;20457;-89
2021/03/30 04:20:22;;;;;;;6.20;3.53;;;3.90;99.90;;;;;;5059855;28;20497;-91
2021/03/30 04:22:52;;;;;;;4.07;2.87;;;4.30;99.90;;;;;;5048956;23;20527;-89
2021/03/30 04:25:18;;;;;;;3.10;2.50;;;4.30;99.90;;;;;;5039190;28;20520;-90
2021/03/30 04:27:45;;;;;;;3.27;2.80;;;4.60;99.90;;;;;;5039454;28;20550;-89
2021/03/30 04:30:13;;;;;;;4.27;2.40;;;4.10;99.90;;;;;;5038988;28;20447;-90
2021/03/30 04:32:40;;;;;;;5.47;2.80;;;;;;;;;;5032282;28;20448;-92
2021/03/30 04:35:07;;;;;;;4.83;2.73;;;4.10;99.90;;;;;;5039658;28;20435;-92
2021/03/30 04:37:34;;;;;;;3.50;2.00;;;;;;;;;;5036419;28;20490;-92
2021/03/30 04:40:00;;;;;;;4.53;2.70;;;;;;;;;;5042223;28;20431;-91
2021/03/30 04:42:27;;;;;;;4.00;2.70;;;;;;;;;;5041143;28;20920;-92
2021/03/30 04:44:54;;;;;;;3.43;2.47;;;4.10;99.90;;;;;;5041309;28;20463;-92
2021/03/30 04:47:21;;;;;;;4.17;2.70;;;;;;;;;;5038960;28;20455;-92
2021/03/30 04:49:48;;;;;;;4.57;2.57;;;;;;;;;;5039317;28;20451;-92
2021/03/30 04:52:16;;;;;;;5.17;2.60;;;4.10;99.90;;;;;;5040021;28;20470;-92
2021/03/30 04:54:43;;;;;;;5.97;3.10;;;4.10;99.90;;;;;;5045747;28;20450;-93
2021/03/30 04:57:09;;;;;;;3.60;2.40;;;;;;;;;;5042886;28;20941;-93
2021/03/30 04:59:36;;;;;;;5.87;2.83;;;;;;;;;;5044004;28;20469;-91
2021/03/30 05:02:07;;;;;;;3.90;2.47;;;4.10;99.90;;;;;;5044128;28;20504;-93
2021/03/30 05:04:33;;;;;;;3.20;2.83;;;;;;;;;;5043059;28;20462;-92
2021/03/30 05:06:59;;;;;;;6.77;2.73;;;3.90;99.90;;;;;;5044802;28;20483;-92
2021/03/30 05:09:26;;;;;;;5.20;2.80;;;;;;;;;;5047836;28;20443;-92
2021/03/30 05:11:53;;;;;;;3.57;3.10;;;;;;;;;;5044850;28;20436;-91
2021/03/30 05:14:19;;;;;;;2.87;2.17;;;;;;;;;;5043164;28;20458;-92
2021/03/30 05:16:46;;;;;;;5.03;3.07;;;;;;;;;;5041808;28;20489;-91
2021/03/30 05:19:17;;;;;;;4.20;2.70;;;3.80;99.90;;;;;;5065302;23;20512;-92
2021/03/30 05:24:13;;;;;;;4.73;2.90;;;4.00;99.90;;;;;;5060104;23;20513;-92
2021/03/30 05:26:39;;;;;;;3.97;2.80;;;;;;;;;;5062715;28;20239;-91
2021/03/30 05:29:08;;;;;;;3.27;2.70;;;4.00;99.90;;;;;;5065129;23;20480;-91
2021/03/30 05:31:34;;;;;;;3.67;2.67;;;;;;;;;;5056037;23;20486;-91
2021/03/30 05:34:01;;;;;;;3.83;3.07;;;4.00;99.90;;;;;;5059814;23;20546;-91
2021/03/30 05:36:29;;;;;;;3.80;3.07;;;4.20;99.90;;;;;;5043204;28;20440;-91
2021/03/30 05:38:56;;;;;;;7.20;3.00;;;;;;;;;;5047847;23;20451;-91
2021/03/30 05:41:23;;;;;;;6.80;3.23;;;;;;;;;;5044524;28;20463;-92
2021/03/30 05:43:50;;;;;;;6.23;4.00;;;;;;;;;;5051931;23;20443;31
2021/03/30 05:46:17;;;;;;;3.50;3.00;;;4.90;99.90;;;;;;5002851;28;20496;-91
2021/03/30 05:48:46;;;;;;;3.53;3.23;;;4.90;99.90;;;;;;5003430;28;20822;-92
2021/03/30 05:51:17;;;;;;;6.70;3.60;;;5.10;99.90;;;;;;5002093;28;20442;-92
2021/03/30 05:54:02;;;;;;;4.07;3.30;;;5.40;99.90;;;;;;5004727;28;20438;-92
2021/03/30 05:56:30;;;;;;;15.23;3.70;;;5.70;99.90;;;;;;5001453;28;20433;-93
2021/03/30 05:58:59;;;;;;;5.37;3.73;;;6.10;99.90;;;;;;5001497;28;20511;-92
2021/03/30 06:01:28;;;;;;;11.10;4.50;;;6.50;99.90;;;;;;4999487;28;20445;-91
2021/03/30 06:04:00;;;;;;;9.33;5.80;;;6.80;99.90;;;;;;5004754;28;20441;-91
2021/03/30 06:06:27;;;;;;;14.10;4.77;;;;;;;;;;5012021;28;20582;-92
2021/03/30 06:08:54;;;;;;;19.93;5.00;;;9.30;99.90;;;;;;5005584;28;20457;-91
2021/03/30 06:11:20;;;;;;;38.57;6.97;;;;;;;;;;5003136;28;20448;-94
2021/03/30 06:14:06;;;;;;;16.23;4.73;;;8.30;99.90;;;;;;5003437;28;20438;-91
2021/03/30 06:16:57;;;;;;;8.43;4.07;;;8.40;99.90;;;;;;4978406;28;20821;-95
2021/03/30 06:19:26;;;;;;;17.13;5.50;;;;;;;;;;4993371;28;20475;-92
2021/03/30 06:22:03;;;;;;;12.37;5.13;;;8.60;99.90;;;;;;4999908;28;20438;-93
2021/03/30 06:24:37;;;;;;;19.27;4.70;;;8.70;99.80;;;;;;4952401;28;20851;-94
2021/03/30 06:27:48;;;;;;;15.60;4.57;;;8.80;99.90;;;;;;4964247;28;20452;-93
2021/03/30 06:30:17;;;;;;;11.93;5.43;;;9.10;98.80;;;;;;4989312;28;20446;-94
2021/03/30 06:32:44;;;;;;;8.17;4.30;;;;;;;;;;4991583;28;20429;-93
2021/03/30 06:35:14;;;;;;;9.90;4.30;;;9.90;99.00;;;;;;5001468;28;20453;-94
2021/03/30 06:37:42;;;;;;;9.60;5.20;;;9.90;97.50;;;;;;4994922;28;20445;-92
2021/03/30 06:40:20;;;;;;;13.27;4.40;;;10.30;98.30;;;;;;5000660;28;20460;-91
2021/03/30 06:42:50;;;;;;;10.27;4.77;;;10.10;96.40;;;;;;5000829;28;20481;-93
2021/03/30 06:45:27;;;;;;;9.70;5.03;;;10.60;95.80;;;;;;4998199;28;20561;-93
2021/03/30 06:47:55;;;;;;;6.20;4.70;;;10.60;95.10;;;;;;5000662;28;20456;-93
2021/03/30 06:50:27;;;;;;;10.63;5.40;;;11.40;95.80;;;;;;4998454;28;20449;-90
2021/03/30 06:52:55;;;;;;;8.93;4.70;;;11.20;97.00;;;;;;5000841;28;20445;-92
2021/03/30 06:55:29;;;;;;;6.77;5.00;;;11.10;94.70;;;;;;5001916;28;20441;-93
2021/03/30 06:58:03;;;;;;;8.60;4.63;;;11.50;93.80;;;;;;4997509;28;20449;-91
2021/03/30 07:00:37;;;;;;;8.63;4.17;;;12.10;94.70;;;;;;4989444;28;20445;-92
2021/03/30 07:03:07;;;;;;;9.53;4.77;;;12.30;92.20;;;;;;4982191;28;20445;-90
2021/03/30 07:05:38;;;;;;;17.97;4.83;;;12.40;92.50;;;;;;4976830;28;20508;-94
2021/03/30 07:08:06;;;;;;;13.93;4.70;;;12.90;91.70;;;;;;4976844;28;20478;-90
2021/03/30 07:10:36;;;;;;;9.30;5.13;;;13.70;90.60;;;;;;4982238;28;20446;-90
2021/03/30 07:13:03;;;;;;;11.80;5.97;;;13.70;89.40;;;;;;4985493;28;20450;-89
2021/03/30 07:15:31;;;;;;;13.70;5.20;;;14.60;94.00;;;;;;5006550;23;20479;-91
2021/03/30 07:18:12;;;;;;;11.80;5.60;;;14.80;87.70;;;;;;5058168;28;20596;-88
2021/03/30 07:20:43;;;;;;;9.63;4.80;;;14.90;85.80;;;;;;5061071;28;20544;-89
2021/03/30 07:23:12;;;;;;;12.60;5.17;;;15.40;85.70;;;;;;5058607;28;20442;-90
2021/03/30 07:25:45;;;;;;;8.90;5.10;;;15.90;83.10;;;;;;5063762;28;20478;-88
2021/03/30 07:28:17;;;;;;;15.53;5.50;;;16.10;82.10;;;;;;5066293;28;20460;-88
2021/03/30 07:30:46;;;;;;;5.20;4.70;;;15.90;82.40;;;;;;5065975;28;20938;-88
2021/03/30 07:33:20;;;;;;;12.40;5.30;;;16.00;91.70;;;;;;5059460;23;20493;-88
2021/03/30 07:35:47;;;;;;;10.63;5.50;;;16.30;81.50;;;;;;5061964;28;20450;-89
2021/03/30 07:38:17;;;;;;;6.00;5.40;;;16.50;81.70;;;;;;5061160;28;20478;-90
2021/03/30 07:41:07;;;;;;;10.47;4.70;;;16.40;87.90;;;;;;5063629;28;20450;-95
2021/03/30 07:43:49;;;;;;;13.13;5.70;;;17.10;79.10;;;;;;5054056;28;20447;-91
2021/03/30 07:49:00;;;;;;;8.63;4.83;;;;;;;;;;5051757;28;20434;-91
2021/03/30 07:51:37;;;;;;;7.63;4.40;;;18.10;85.20;;;;;;5056807;28;20814;-91
2021/03/30 07:54:10;;;;;;;8.83;4.70;;;18.20;76.60;;;;;;5053064;28;20537;-91
2021/03/30 07:56:54;;;;;;;9.80;4.43;;;18.40;91.40;;;;;;5057338;28;20446;-91
2021/03/30 07:59:45;;;;;;;7.53;4.83;;;18.60;73.50;;;;;;5034454;28;20542;-90
2021/03/30 08:02:17;;;;;;;7.47;4.67;;;18.70;71.90;;;;;;5056637;28;20541;-90
2021/03/30 08:05:13;;;;;;;7.90;4.83;;;19.10;70.90;;;;;;5056410;28;20446;-90
2021/03/30 08:08:00;;;;;;;11.50;5.27;;;19.30;71.90;;;;;;5062294;28;20490;-90
2021/03/30 08:10:30;;;;;;;7.77;4.63;;;19.10;71.50;;;;;;5057411;28;20479;-89
2021/03/30 08:13:31;;;;;;;8.20;4.77;;;19.10;71.90;;;;;;5058578;28;20450;-89
2021/03/30 08:16:00;;;;;;;8.17;4.63;;;19.50;68.70;;;;;;5055027;28;20477;-87
2021/03/30 08:18:29;;;;;;;10.93;4.80;;;19.70;68.30;;;;;;5054948;28;20472;-88
2021/03/30 08:21:01;;;;;;;8.60;5.00;;;19.60;68.20;;;;;;5054963;28;20523;-88
2021/03/30 08:23:28;;;;;;;7.30;5.00;;;;;;;;;;5056035;28;20461;-89
2021/03/30 08:26:18;;;;;;;12.73;5.60;;;20.30;68.20;;;;;;5055976;28;20862;-92
2021/03/30 08:29:34;;;;;;;5.53;4.33;;;20.90;64.70;;;;;;5055629;28;20450;-88
2021/03/30 08:32:02;;;;;;;11.03;4.50;;;21.90;59.80;;;;;;5057291;28;20455;-95
2021/03/30 08:34:40;;;;;;;8.17;4.43;;;22.70;55.90;;;;;;5052943;28;20474;-94
2021/03/30 08:37:10;;;;;;;5.50;3.93;;;22.70;56.50;;;;;;5053285;28;20435;-92
2021/03/30 08:39:37;;;;;;;9.83;4.37;;;;;;;;;;4995518;28;20450;-92
2021/03/30 08:42:11;;;;;;;8.07;4.70;;;21.90;56.40;;;;;;4994799;28;20516;-88
2021/03/30 08:44:45;;;;;;;8.27;3.87;;;22.20;57.60;;;;;;4992070;28;20452;-93
2021/03/30 08:47:26;;;;;;;7.37;4.53;;;22.30;58.00;;;;;;4988019;28;20453;-90
2021/03/30 08:50:10;;;;;;;12.70;4.30;;;23.00;71.60;;;;;;4990708;28;20481;-90
2021/03/30 08:52:42;;;;;;;6.60;4.47;;;;;;;;;;4992746;28;20457;-94
2021/03/30 08:55:11;;;;;;;5.67;4.40;;;23.10;54.40;;;;;;4993546;28;20485;-89
2021/03/30 08:57:38;;;;;;;7.70;4.87;;;;;;;;;;5020743;28;20454;-93
2021/03/30 09:00:14;;;;;;;6.50;4.50;;;22.70;68.70;;;;;;5052398;28;20438;-93
2021/03/30 09:02:42;;;;;;;7.80;5.00;;;22.80;71.60;;;;;;5055845;28;20868;-96
2021/03/30 09:05:15;;;;;;;7.10;4.80;;;22.90;66.80;;;;;;5056166;28;20465;-92
2021/03/30 09:07:43;;;;;;;6.00;5.40;;;23.30;53.30;;;;;;5045942;28;20473;-92
2021/03/30 09:10:21;;;;;;;6.00;5.40;;;;;;;;;;5045612;28;20438;-95
2021/03/30 09:12:48;;;;;;;11.80;5.10;;;;;;;;;;5042747;28;20455;-91
2021/03/30 09:15:29;;;;;;;6.73;4.60;;;22.90;48.10;;;;;;5045547;28;20486;-91
2021/03/30 09:18:00;;;;;;;5.63;4.67;;;23.30;49.40;;;;;;5046157;28;20652;-90
2021/03/30 09:20:32;;;;;;;9.00;4.70;;;23.50;50.10;;;;;;5049003;28;20538;-90
2021/03/30 09:23:02;;;;;;;6.83;4.90;;;;;;;;;;5045342;28;20452;-89
2021/03/30 09:25:36;;;;;;;5.23;4.40;;;21.50;64.40;;;;;;5047706;28;20446;-94
2021/03/30 09:28:16;;;;;;;9.43;5.20;;;21.60;50.10;;;;;;5043117;28;20454;-93
2021/03/30 09:30:47;;;;;;;10.33;5.43;;;21.80;70.30;;;;;;5048521;28;20934;-91
2021/03/30 09:33:18;;;;;;;5.33;4.73;;;22.50;58.00;;;;;;5042388;28;20475;-91
2021/03/30 09:35:47;;;;;;;10.13;5.30;;;23.50;56.70;;;;;;5043143;28;20475;-91
2021/03/30 09:38:22;;;;;;;8.00;5.03;;;23.50;65.40;;;;;;5044839;28;20563;-91
2021/03/30 09:40:48;;;;;;;4.80;4.30;;;23.90;64.30;;;;;;5049600;28;20437;-89
2021/03/30 09:43:18;;;;;;;7.53;5.27;;;23.90;47.70;;;;;;5038905;28;20447;-93
2021/03/30 09:45:48;;;;;;;6.60;5.07;;;24.30;46.00;;;;;;5048009;28;20604;-90
2021/03/30 09:48:21;;;;;;;6.70;4.83;;;24.90;47.30;;;;;;5056182;28;20802;-90
2021/03/30 09:50:51;;;;;;;6.00;5.37;;;24.60;47.40;;;;;;5004536;28;20456;-92
2021/03/30 09:53:21;;;;;;;10.80;5.40;;;24.40;64.70;;;;;;5003322;28;20453;-90
2021/03/30 09:55:48;;;;;;;7.37;5.67;;;;;;;;;;5010637;28;20488;-91
2021/03/30 09:58:16;;;;;;;7.20;5.17;;;25.50;45.00;;;;;;5005019;28;20861;-91
2021/03/30 10:00:46;;;;;;;8.93;5.17;;;25.30;44.70;;;;;;5010694;28;20534;-91
2021/03/30 10:03:15;;;;;;;9.37;4.40;;;24.70;49.20;;;;;;5014210;28;20514;-94
2021/03/30 10:05:42;;;;;;;5.00;4.50;;;25.40;43.90;;;;;;5010474;28;20454;-94
2021/03/30 10:08:18;;;;;;;5.43;4.30;;;25.30;53.40;;;;;;5022251;28;20451;-93
2021/03/30 10:10:46;;;;;;;7.07;4.80;;;25.30;42.50;;;;;;5059196;28;20446;-93
2021/03/30 10:13:27;;;;;;;6.50;3.93;;;25.80;43.30;;;;;;5053829;28;20431;-95
2021/03/30 10:15:55;;;;;;;4.50;4.07;;;26.00;58.00;;;;;;5056780;28;20486;-94
2021/03/30 10:18:25;;;;;;;4.53;3.60;;;25.90;59.50;;;;;;5053105;28;20450;-93
2021/03/30 10:20:53;;;;;;;4.47;3.70;;;26.10;39.90;;;;;;4996034;28;20460;-94
2021/03/30 10:23:22;;;;;;;4.20;3.80;;;26.10;39.60;;;;;;5001058;28;20449;-94
2021/03/30 10:25:51;;;;;;;10.17;4.40;;;25.70;49.00;;;;;;4997912;28;20696;-91
2021/03/30 10:28:26;;;;;;;3.93;3.53;;;25.70;40.90;;;;;;4981966;28;20450;-95
2021/03/30 10:30:58;;;;;;;6.60;4.77;;;26.70;40.00;;;;;;4982909;28;20441;-94
2021/03/30 10:33:39;;;;;;;8.83;4.07;;;26.30;49.90;;;;;;4998738;28;20508;-95
2021/03/30 10:36:06;;;;;;;11.23;4.20;;;;;;;;;;4995070;28;20547;-93
2021/03/30 10:38:33;;;;;;;4.60;4.20;;;;;;;;;;5017541;28;20537;-90
2021/03/30 10:41:05;;;;;;;4.33;4.00;;;26.60;52.40;;;;;;5058319;28;20446;-91
2021/03/30 10:43:32;;;;;;;4.30;3.67;;;;;;;;;;5059440;28;20891;-91
2021/03/30 10:45:59;;;;;;;7.97;4.73;;;25.80;56.20;;;;;;5059942;28;20453;-92
2021/03/30 10:48:26;;;;;;;8.03;4.10;;;26.40;48.90;;;;;;5060313;28;20840;-89
2021/03/30 10:50:54;;;;;;;5.80;3.93;;;26.30;57.20;;;;;;5048069;28;20440;-89
2021/03/30 10:53:32;;;;;;;4.80;4.30;;;;;;;;;;5051441;28;20947;-91
2021/03/30 10:56:01;;;;;;;5.67;4.40;;;;;;;;;;5030145;28;20491;-92
2021/03/30 10:58:34;;;;;;;5.43;3.97;;;;;;;;;;5039218;28;20458;-92
2021/03/30 11:01:01;;;;;;;4.50;3.87;;;25.00;40.30;;;;;;5058397;28;20533;-93
2021/03/30 11:03:29;;;;;;;5.20;4.27;;;;;;;;;;5058967;28;20534;-91
2021/03/30 11:05:58;;;;;;;4.93;3.97;;;;;;;;;;5058734;28;20458;-92
2021/03/30 11:08:25;;;;;;;5.60;4.27;;;25.40;55.60;;;;;;5058877;28;20442;-93
2021/03/30 11:10:54;;;;;;;8.97;4.23;;;25.50;40.70;;;;;;5058018;28;20462;-92
2021/03/30 11:13:21;;;;;;;6.53;4.60;;;25.10;58.40;;;;;;5058115;28;20466;-93
2021/03/30 11:15:49;;;;;;;5.17;4.33;;;25.10;42.40;;;;;;5053933;28;20486;-87
2021/03/30 11:18:16;;;;;;;7.97;3.70;;;25.10;58.30;;;;;;5056099;28;20447;-92
2021/03/30 11:20:43;;;;;;;12.83;3.83;;;;;;;;;;5056834;28;20466;-91
2021/03/30 11:23:09;;;;;;;10.80;3.70;;;25.40;63.60;;;;;;5056333;28;20484;-89
2021/03/30 11:25:38;;;;;;;8.43;4.20;;;24.80;59.70;;;;;;5055597;28;20506;-93
2021/03/30 11:28:06;;;;;;;6.47;4.57;;;24.90;43.20;;;;;;5054959;28;20462;-88
2021/03/30 11:30:38;;;;;;;6.10;4.30;;;26.60;60.30;;;;;;5053850;28;20446;-87
2021/03/30 11:33:08;;;;;;;4.80;3.90;;;26.70;43.60;;;;;;5054442;28;20537;-88
2021/03/30 11:35:36;;;;;;;6.60;3.80;;;25.70;55.30;;;;;;5055206;28;20834;-91
2021/03/30 11:38:07;;;;;;;6.67;3.63;;;24.50;57.80;;;;;;5057448;28;20451;-91
2021/03/30 11:40:33;;;;;;;4.90;3.70;;;25.80;56.10;;;;;;5057852;28;20453;-86
2021/03/30 11:42:59;;;;;;;4.20;3.80;;;26.40;54.80;;;;;;5057150;28;20451;-87
2021/03/30 11:45:26;;;;;;;6.03;3.80;;;26.90;56.30;;;;;;5053700;28;20446;-89
2021/03/30 11:47:52;;;;;;;7.33;3.33;;;26.40;54.20;;;;;;5055608;28;20442;-84
2021/03/30 11:50:19;;;;;;;4.57;3.10;;;25.90;49.20;;;;;;5052248;28;20538;-86
2021/03/30 11:52:46;;;;;;;4.67;3.83;;;26.60;55.00;;;;;;5054252;28;20446;-90
2021/03/30 11:55:13;;;;;;;5.60;3.03;;;26.40;38.40;;;;;;5054320;28;20970;-91
2021/03/30 11:57:40;;;;;;;4.00;2.93;;;26.90;45.50;;;;;;5056661;28;20442;-90
2021/03/30 12:00:07;;;;;;;3.10;2.77;;;;;;;;;;5058537;28;20467;-93
2021/03/30 12:02:34;;;;;;;5.20;3.63;;;;;;;;;;5064277;28;20510;-96
2021/03/30 12:05:01;;;;;;;4.93;2.70;;;;;;;;;;5059911;28;20555;-94
2021/03/30 12:07:29;;;;;;;4.10;2.83;;;;;;;;;;5062448;28;20446;-96
2021/03/30 12:09:57;;;;;;;4.33;3.00;;;26.60;36.70;;;;;;5063329;28;20461;-94
2021/03/30 12:12:24;;;;;;;8.70;2.80;;;;;;;;;;5047510;28;20467;-89
2021/03/30 12:14:50;;;;;;;3.87;2.23;;;27.20;51.60;;;;;;5045854;28;20447;-89
2021/03/30 12:17:17;;;;;;;3.60;2.80;;;26.70;50.80;;;;;;5053493;28;20569;-88
2021/03/30 12:19:43;;;;;;;5.13;3.33;;;27.00;48.60;;;;;;5000648;28;20604;-92
2021/03/30 12:22:10;;;;;;;4.60;1.90;;;26.80;33.00;;;;;;5035796;28;20475;-93
2021/03/30 12:24:38;;;;;;;3.40;2.43;;;27.00;45.70;;;;;;5039231;28;20444;-91
2021/03/30 12:27:10;;;;;;;2.20;2.00;;;26.90;30.50;;;;;;5037269;28;20467;-91
2021/03/30 12:29:37;;;;;;;5.00;2.80;;;26.90;40.40;;;;;;5036119;28;20444;-92
2021/03/30 12:32:03;;;;;;;4.60;2.70;;;27.40;51.50;;;;;;5037055;28;20440;-90
2021/03/30 12:34:29;;;;;;;5.90;4.20;;;26.80;38.00;;;;;;5036949;28;20451;-94
2021/03/30 12:36:56;;;;;;;5.00;3.23;;;26.50;51.90;;;;;;5048934;28;20529;-94
2021/03/30 12:39:22;;;;;;;4.10;3.00;;;26.00;49.90;;;;;;5052894;28;20439;-93
2021/03/30 12:41:49;;;;;;;5.90;3.97;;;25.90;51.20;;;;;;5056332;28;20457;-94
2021/03/30 12:44:37;;;;;;;5.00;3.67;;;27.00;51.50;;;;;;5049339;28;20815;-93
2021/03/30 12:47:07;;;;;;;6.03;3.67;;;;;;;;;;5055002;28;20466;-93
2021/03/30 12:49:34;;;;;;;3.53;3.23;;;;;;;;;;5055160;28;20447;-94
2021/03/30 12:52:09;;;;;;;5.77;3.90;;;26.70;52.30;;;;;;5057706;28;20968;-96
2021/03/30 12:54:36;;;;;;;3.40;3.10;;;26.50;51.80;;;;;;5051448;28;20439;-93
2021/03/30 12:57:02;;;;;;;6.10;3.20;;;;;;;;;;5047930;28;20574;-93
2021/03/30 12:59:30;;;;;;;5.73;3.90;;;25.30;35.20;;;;;;5060896;28;20823;-93
2021/03/30 13:01:58;;;;;;;4.53;3.30;;;26.40;52.10;;;;;;5046438;28;20530;-95
2021/03/30 13:04:25;;;;;;;3.30;2.80;;;27.30;50.80;;;;;;5057000;28;20824;-94
2021/03/30 13:06:53;;;;;;;5.67;2.87;;;27.70;50.60;;;;;;5054659;28;20474;-94
2021/03/30 13:09:20;;;;;;;7.83;3.03;;;28.00;50.60;;;;;;5056364;28;20481;-94
2021/03/30 13:11:46;;;;;;;4.00;2.60;;;27.40;38.20;;;;;;5054075;28;20456;-92
2021/03/30 13:14:16;;;;;;;3.60;2.90;;;27.30;30.80;;;;;;5057684;28;20446;-95
2021/03/30 13:16:43;;;;;;;2.70;2.27;;;27.90;31.20;;;;;;5053790;28;20494;-92
2021/03/30 13:19:10;;;;;;;4.90;2.60;;;28.30;31.60;;;;;;5052353;28;20946;-94
2021/03/30 13:21:36;;;;;;;3.20;2.90;;;28.70;31.50;;;;;;5041232;28;20435;-94
2021/03/30 13:24:05;;;;;;;6.00;2.90;;;28.50;31.20;;;;;;5042286;28;20440;-95
2021/03/30 13:26:32;;;;;;;3.10;2.80;;;28.20;30.10;;;;;;5036460;28;20428;-94
2021/03/30 13:29:01;;;;;;;5.50;3.00;;;27.50;32.60;;;;;;5035686;28;20451;-94
2021/03/30 13:31:28;;;;;;;3.60;3.30;;;26.60;47.30;;;;;;5038962;28;20440;-95